createdAt,value
2023-05-16T00:01:30.521Z,100128.75152049182
2023-05-16T00:04:25.939Z,100128.2469985958
2023-05-16T00:07:21.406Z,100125.8760768285
2023-05-16T00:10:17.981Z,100124.6805217267
2023-05-16T00:13:13.532Z,100131.08178706224
2023-05-16T00:16:11.123Z,100125.18579400476
2023-05-16T00:19:09.694Z,100122.69788951801
2023-05-16T00:22:06.230Z,100117.37462285403
2023-05-16T00:25:01.760Z,100120.84105938495
2023-05-16T00:27:57.348Z,100129.94382491856
2023-05-16T00:30:53.879Z,100141.24756880819
2023-05-16T00:33:49.438Z,100139.28733172023
2023-05-16T00:36:45.032Z,100121.9755175123
2023-05-16T00:39:42.577Z,100115.86233225313
2023-05-16T00:42:38.133Z,100111.64496292963
2023-05-16T00:45:33.676Z,100104.22219060294
2023-05-16T00:48:29.244Z,100103.68409291914
2023-05-16T00:51:25.827Z,100113.6230863509
2023-05-16T00:54:22.436Z,100111.08828042922
2023-05-16T00:57:18.935Z,100104.73151821693
2023-05-16T01:00:16.502Z,100119.34197032703
2023-05-16T01:03:13.151Z,100125.488125942
2023-05-16T01:06:08.587Z,100112.77315868283
2023-05-16T01:09:06.176Z,100110.23855595427
2023-05-16T01:12:11.704Z,100114.40752303075
2023-05-16T01:15:13.226Z,100107.1669195979
2023-05-16T01:18:18.837Z,100099.02416538501
2023-05-16T01:21:21.322Z,100090.06921199747
2023-05-16T01:24:27.847Z,100080.8800203122
2023-05-16T01:27:26.394Z,100080.2122972171
2023-05-16T01:30:26.984Z,100068.78440741384
2023-05-16T01:33:22.486Z,100058.44530468878
2023-05-16T01:36:26.046Z,100061.09975182099
2023-05-16T01:39:33.602Z,100070.58071035879
2023-05-16T01:42:36.174Z,100081.76231472238
2023-05-16T01:45:39.677Z,100080.7177583734
2023-05-16T01:48:43.219Z,100074.69246365546
2023-05-16T01:51:41.797Z,100076.62862082312
2023-05-16T01:54:44.329Z,100063.04821296719
2023-05-16T01:57:41.860Z,100058.57347748478
2023-05-16T02:00:39.446Z,100067.35455865107
2023-05-16T02:03:36.027Z,100060.29652415018
2023-05-16T02:06:32.571Z,100053.36803081716
2023-05-16T02:09:28.110Z,100047.48267033524
2023-05-16T02:12:24.650Z,100060.17757356138
2023-05-16T02:15:21.229Z,100048.5249924173
2023-05-16T02:18:18.815Z,100038.19571607857
2023-05-16T02:21:14.328Z,100037.44097392129
2023-05-16T02:24:10.904Z,100065.3101226103
2023-05-16T02:27:06.479Z,100054.66780424735
2023-05-16T02:30:02.002Z,100056.8091718495
2023-05-16T02:32:57.655Z,100050.35309559006
2023-05-16T02:35:55.143Z,100045.0014246644
2023-05-16T02:38:52.694Z,100034.16664279073
2023-05-16T02:41:48.222Z,100032.27613677114
2023-05-16T02:44:44.842Z,100024.11955834473
2023-05-16T02:47:41.457Z,100020.8112011568
2023-05-16T02:50:39.946Z,100026.48006110673
2023-05-16T02:53:36.481Z,100025.6934003036
2023-05-16T02:56:33.045Z,100018.22906510853
2023-05-16T02:59:28.640Z,100003.86965008693
2023-05-16T03:02:24.358Z,99992.84547761286
2023-05-16T03:05:19.746Z,99983.55785588281
2023-05-16T03:08:15.257Z,99980.56592560837
2023-05-16T03:11:10.855Z,99988.03100520938
2023-05-16T03:14:06.459Z,99980.85079466407
2023-05-16T03:17:01.958Z,99973.22866118445
2023-05-16T03:19:57.520Z,99970.58428430386
2023-05-16T03:22:53.109Z,99974.83611181802
2023-05-16T03:25:48.668Z,99979.59091630741
2023-05-16T03:28:45.219Z,99991.30476918152
2023-05-16T03:31:41.815Z,99992.97412370055
2023-05-16T03:34:37.344Z,99992.18638694611
2023-05-16T03:37:32.902Z,99996.18494894079
2023-05-16T03:40:28.438Z,99999.64906319432
2023-05-16T03:43:24.012Z,99997.75924717504
2023-05-16T03:46:19.621Z,99992.05182997933
2023-05-16T03:49:16.141Z,100002.32218726932
2023-05-16T03:52:11.701Z,100015.14376568838
2023-05-16T03:55:08.283Z,100017.34845525584
2023-05-16T03:58:04.826Z,100016.87607844664
2023-05-16T04:01:00.390Z,100017.63303478989
2023-05-16T04:03:59.927Z,100011.6791767213
2023-05-16T04:06:55.503Z,100011.55453558214
2023-05-16T04:09:51.105Z,100025.7596318132
2023-05-16T04:12:46.651Z,100029.75928056728
2023-05-16T04:15:42.205Z,100023.01739214666
2023-05-16T04:18:37.761Z,100026.20055030032
2023-05-16T04:21:33.349Z,100038.60379312468
2023-05-16T04:24:29.855Z,100026.3207478288
2023-05-16T04:27:26.439Z,100031.33194773954
2023-05-16T04:30:21.968Z,100038.23079382995
2023-05-16T04:33:18.558Z,100047.61517774886
2023-05-16T04:36:15.135Z,100040.71543972091
2023-05-16T04:39:11.682Z,100044.87612590556
2023-05-16T04:42:07.218Z,100037.75291873685
2023-05-16T04:45:03.804Z,100028.30039518754
2023-05-16T04:48:00.396Z,100037.43555240474
2023-05-16T04:50:56.927Z,100044.27380268121
2023-05-16T04:53:52.466Z,100049.0930976631
2023-05-16T04:56:48.037Z,100045.7202133134
2023-05-16T04:59:44.619Z,100032.54424430183
2023-05-16T05:02:40.191Z,100037.68152465744
2023-05-16T05:05:35.776Z,100036.19308857476
2023-05-16T05:08:32.271Z,100022.42095471402
2023-05-16T05:11:27.818Z,100014.31815018311
2023-05-16T05:14:23.433Z,99997.63077672796
2023-05-16T05:17:20.268Z,99993.17363421588
2023-05-16T05:20:15.548Z,99981.30600462879
2023-05-16T05:23:11.115Z,99986.65346804068
2023-05-16T05:26:07.621Z,99995.6449837326
2023-05-16T05:29:05.642Z,99990.97602258569
2023-05-16T05:32:02.872Z,99997.49647924544
2023-05-16T05:34:59.423Z,99987.80412701258
2023-05-16T05:37:54.899Z,99992.2977832669
2023-05-16T05:40:50.418Z,99978.66929942397
2023-05-16T05:43:47.004Z,99963.21865880674
2023-05-16T05:46:42.519Z,99958.95884556799
2023-05-16T05:49:38.091Z,99947.58508061881
2023-05-16T05:52:33.674Z,99955.31191627005
2023-05-16T05:55:31.185Z,99963.9482944468
2023-05-16T05:58:26.782Z,99969.98945844756
2023-05-16T06:01:24.346Z,99966.69344419538
2023-05-16T06:04:19.899Z,99977.30597177113
2023-05-16T06:07:16.512Z,99984.80802843542
2023-05-16T06:10:12.053Z,100000.14018111437
2023-05-16T06:13:07.585Z,99990.29026716502
2023-05-16T06:16:04.126Z,99988.08801702844
2023-05-16T06:19:00.811Z,100002.01472640497
2023-05-16T06:21:56.229Z,100002.9798642791
2023-05-16T06:24:51.842Z,99994.69484162246
2023-05-16T06:27:47.414Z,99985.50599253223
2023-05-16T06:30:42.956Z,99985.06559600226
2023-05-16T06:33:38.487Z,99982.50607726438
2023-05-16T06:36:34.079Z,99983.90984081103
2023-05-16T06:39:29.643Z,99982.03647546977
2023-05-16T06:42:25.237Z,99992.31108762632
2023-05-16T06:45:21.795Z,99983.76338144412
2023-05-16T06:48:18.402Z,99983.9617275315
2023-05-16T06:51:13.884Z,99979.22731763856
2023-05-16T06:54:09.480Z,99971.6647364381
2023-05-16T06:57:06.995Z,99961.15301258059
2023-05-16T07:00:03.605Z,99958.14018434621
2023-05-16T07:02:59.211Z,99942.09260366681
2023-05-16T07:05:55.680Z,99942.28897016362
2023-05-16T07:08:51.230Z,99945.58747956874
2023-05-16T07:11:47.794Z,99947.63608966058
2023-05-16T07:14:43.380Z,99944.80440192393
2023-05-16T07:17:38.910Z,99946.01983285158
2023-05-16T07:20:34.509Z,99949.4911833605
2023-05-16T07:23:32.030Z,99947.26442523302
2023-05-16T07:26:27.600Z,99950.53027763011
2023-05-16T07:29:23.197Z,99948.14000554546
2023-05-16T07:32:18.921Z,99951.99408081234
2023-05-16T07:35:14.282Z,99937.37222638661
2023-05-16T07:38:12.857Z,99932.60293215209
2023-05-16T07:41:09.425Z,99934.1224526214
2023-05-16T07:44:06.998Z,99924.42880320808
2023-05-16T07:47:03.508Z,99934.25506917773
2023-05-16T07:49:59.074Z,99924.9786133314
2023-05-16T07:52:54.669Z,99921.79022550253
2023-05-16T07:55:50.174Z,99909.63671648517
2023-05-16T07:58:48.739Z,99899.98826886702
2023-05-16T08:01:44.289Z,99901.17336733754
2023-05-16T08:04:39.893Z,99889.59432249067
2023-05-16T08:07:35.426Z,99887.63856402566
2023-05-16T08:10:31.985Z,99902.53045431554
2023-05-16T08:13:27.564Z,99913.72155116915
2023-05-16T08:16:23.107Z,99931.93515294616
2023-05-16T08:19:18.728Z,99951.11511420607
2023-05-16T08:22:14.190Z,99965.86795071824
2023-05-16T08:25:10.794Z,99970.04304793305
2023-05-16T08:28:06.356Z,99976.8158679002
2023-05-16T08:31:01.947Z,99980.31209289348
2023-05-16T08:33:57.479Z,100003.33402498496
2023-05-16T08:36:54.256Z,99993.94849232587
2023-05-16T08:39:50.582Z,100001.90615447027
2023-05-16T08:42:48.148Z,100003.51059052986
2023-05-16T08:45:45.702Z,100006.50024488274
2023-05-16T08:48:46.268Z,99997.26285234997
2023-05-16T08:51:42.867Z,99999.86252642325
2023-05-16T08:54:42.375Z,100012.44145980607
2023-05-16T08:57:40.894Z,100017.06028655381
2023-05-16T09:00:43.538Z,100005.65917455035
2023-05-16T09:03:41.103Z,99993.55671535373
2023-05-16T09:06:41.552Z,99984.25641443956
2023-05-16T09:09:39.120Z,99944.52302835336
2023-05-16T09:12:35.728Z,99908.75573593401
2023-05-16T09:15:33.279Z,99915.54210030162
2023-05-16T09:18:33.947Z,99906.05288551078
2023-05-16T09:21:32.338Z,99900.51212159562
2023-05-16T09:24:28.912Z,99903.75319996732
2023-05-16T09:27:26.491Z,99908.15860417303
2023-05-16T09:30:24.042Z,99915.7906696768
2023-05-16T09:33:22.589Z,99922.28704333321
2023-05-16T09:36:18.143Z,99923.90867126368
2023-05-16T09:39:15.733Z,99917.27983036565
2023-05-16T09:42:12.261Z,99916.7622365425
2023-05-16T09:45:12.817Z,99918.04335932176
2023-05-16T09:48:18.564Z,99915.59245553837
2023-05-16T09:51:22.921Z,99902.78186778097
2023-05-16T09:54:23.435Z,99904.0152349509
2023-05-16T09:57:22.043Z,99908.78503734851
2023-05-16T10:00:18.677Z,99894.38475554608
2023-05-16T10:03:16.237Z,99879.92131293436
2023-05-16T10:06:13.648Z,99867.48769609783
2023-05-16T10:09:11.170Z,99875.89620293508
2023-05-16T10:12:15.747Z,99886.7514684947
2023-05-16T10:15:14.286Z,99890.66841290568
2023-05-16T10:18:13.892Z,99888.80988624782
2023-05-16T10:21:13.414Z,99894.74502381709
2023-05-16T10:24:11.956Z,99895.05904614988
2023-05-16T10:27:09.529Z,99876.38895519824
2023-05-16T10:30:07.096Z,99882.56319488076
2023-05-16T10:33:04.707Z,99851.57708985264
2023-05-16T10:36:02.183Z,99856.77245270209
2023-05-16T10:39:01.724Z,99854.75820135091
2023-05-16T10:42:00.304Z,99856.14261238121
2023-05-16T10:45:05.926Z,99859.59993793705
2023-05-16T10:48:04.429Z,99866.79356845445
2023-05-16T10:51:10.952Z,99861.87160542094
2023-05-16T10:54:09.675Z,99861.74099053626
2023-05-16T10:57:07.003Z,99866.82868742857
2023-05-16T11:00:09.605Z,99869.87430464271
2023-05-16T11:03:19.199Z,99868.3485300691
2023-05-16T11:06:22.312Z,99867.81520480766
2023-05-16T11:09:27.236Z,99872.33988019513
2023-05-16T11:12:32.702Z,99868.91166174808
2023-05-16T11:15:32.244Z,99868.54349410364
2023-05-16T11:18:42.800Z,99869.14157703426
2023-05-16T11:21:46.310Z,99861.46090432628
2023-05-16T11:24:52.848Z,99850.6086910058
2023-05-16T11:27:52.422Z,99843.23691388349
2023-05-16T11:30:49.973Z,99837.57800589463
2023-05-16T11:33:47.523Z,99827.04194264904
2023-05-16T11:36:45.071Z,99815.44789434588
2023-05-16T11:39:41.660Z,99812.71143736973
2023-05-16T11:42:39.248Z,99811.84089544596
2023-05-16T11:45:37.743Z,99817.27189331861
2023-05-16T11:48:36.646Z,99822.34218048079
2023-05-16T11:51:34.881Z,99812.99883927256
2023-05-16T11:54:31.444Z,99819.79283331498
2023-05-16T11:57:26.967Z,99825.2518906706
2023-05-16T12:00:26.557Z,99806.61499651756
2023-05-16T12:03:23.261Z,99803.90133037009
2023-05-16T12:06:23.672Z,99788.30267174021
2023-05-16T12:09:22.181Z,99793.62456287
2023-05-16T12:12:20.768Z,99792.60796710568
2023-05-16T12:15:16.293Z,99795.16498197103
2023-05-16T12:18:13.933Z,99792.09558670408
2023-05-16T12:21:12.439Z,99795.85824080453
2023-05-16T12:24:10.031Z,99782.57728708588
2023-05-16T12:27:08.531Z,99781.3805063317
2023-05-16T12:30:05.086Z,99785.74966821594
2023-05-16T12:33:02.897Z,99771.25781380631
2023-05-16T12:36:04.197Z,99770.29265841583
2023-05-16T12:39:01.760Z,99759.97005445062
2023-05-16T12:42:02.291Z,99773.21064115035
2023-05-16T12:45:01.857Z,99778.7907465001
2023-05-16T12:48:06.461Z,99786.79134593393
2023-05-16T12:51:08.978Z,99781.91458115792
2023-05-16T12:54:11.486Z,99779.91573553628
2023-05-16T12:57:10.038Z,99793.53359340822
2023-05-16T13:00:06.554Z,99789.0350741457
2023-05-16T13:03:03.238Z,99785.56062071436
2023-05-16T13:05:59.712Z,99784.14874700127
2023-05-16T13:08:56.281Z,99777.64988242937
2023-05-16T13:11:52.835Z,99782.78483553366
2023-05-16T13:14:49.372Z,99782.06745531768
2023-05-16T13:17:46.003Z,99782.42960658862
2023-05-16T13:20:45.487Z,99773.14789466304
2023-05-16T13:23:41.084Z,99784.19512963934
2023-05-16T13:26:37.655Z,99781.67107994966
2023-05-16T13:29:38.148Z,99768.90508955973
2023-05-16T13:32:33.733Z,99760.64418161722
2023-05-16T13:35:30.456Z,99755.13379030972
2023-05-16T13:38:25.839Z,99758.83846350663
2023-05-16T13:41:22.419Z,99759.76989025355
2023-05-16T13:44:19.000Z,99757.14209718927
2023-05-16T13:47:14.498Z,99746.89545178406
2023-05-16T13:50:12.062Z,99742.40867805498
2023-05-16T13:53:07.653Z,99739.53942880865
2023-05-16T13:56:03.209Z,99736.68375481403
2023-05-16T13:59:05.844Z,99732.50562309512
2023-05-16T14:02:01.294Z,99727.20828958796
2023-05-16T14:04:57.850Z,99715.77735660328
2023-05-16T14:07:53.442Z,99711.34208949996
2023-05-16T14:10:48.992Z,99708.98598038542
2023-05-16T14:13:45.572Z,99701.22503408605
2023-05-16T14:16:45.377Z,99698.26817357294
2023-05-16T14:19:40.620Z,99704.75714559494
2023-05-16T14:22:38.240Z,99702.2106498633
2023-05-16T14:25:33.791Z,99706.52315837753
2023-05-16T14:28:30.358Z,99709.90393255542
2023-05-16T14:31:26.949Z,99707.26139163985
2023-05-16T14:34:23.485Z,99711.30102608938
2023-05-16T14:37:20.007Z,99709.9239855526
2023-05-16T14:40:17.589Z,99722.78136919766
2023-05-16T14:43:13.132Z,99719.61271499335
2023-05-16T14:46:10.754Z,99721.04435604636
2023-05-16T14:49:06.288Z,99714.80161565704
2023-05-16T14:52:02.837Z,99707.01144406795
2023-05-16T14:54:58.406Z,99707.37314536654
2023-05-16T14:57:59.545Z,99704.86571737868
2023-05-16T15:00:55.494Z,99713.24699658046
2023-05-16T15:03:55.765Z,99718.52137805526
2023-05-16T15:06:56.592Z,99717.831349975
2023-05-16T15:09:52.156Z,99722.53013460987
2023-05-16T15:12:48.700Z,99710.89490235096
2023-05-16T15:15:45.264Z,99708.90460950277
2023-05-16T15:18:43.936Z,99711.8296643585
2023-05-16T15:21:41.397Z,99705.2166168522
2023-05-16T15:24:37.935Z,99699.40700096381
2023-05-16T15:27:35.500Z,99699.34906351111
2023-05-16T15:30:32.065Z,99699.54071498304
2023-05-16T15:33:27.635Z,99698.99807960982
2023-05-16T15:36:23.178Z,99686.91247228424
2023-05-16T15:39:18.692Z,99674.35083782893
2023-05-16T15:42:15.312Z,99677.93847154254
2023-05-16T15:45:12.852Z,99672.5406625911
2023-05-16T15:48:09.468Z,99654.3115036117
2023-05-16T15:51:04.981Z,99660.20975252416
2023-05-16T15:54:01.516Z,99641.57292402246
2023-05-16T15:56:57.111Z,99654.13424386448
2023-05-16T15:59:52.677Z,99657.85852308899
2023-05-16T16:02:48.375Z,99648.86871788382
2023-05-16T16:05:43.772Z,99652.53250398481
2023-05-16T16:08:39.385Z,99645.0544376878
2023-05-16T16:11:35.997Z,99654.30725878984
2023-05-16T16:14:33.485Z,99667.1668130215
2023-05-16T16:17:29.058Z,99673.79997536741
2023-05-16T16:20:24.590Z,99678.48539808705
2023-05-16T16:23:21.140Z,99674.81514976939
2023-05-16T16:26:17.720Z,99674.10128093524
2023-05-16T16:29:14.273Z,99671.40236107544
2023-05-16T16:32:10.816Z,99674.60003191084
2023-05-16T16:35:07.772Z,99666.5345052136
2023-05-16T16:38:07.019Z,99665.37985736888
2023-05-16T16:41:03.498Z,99667.67184758045
2023-05-16T16:43:59.073Z,99674.92762423742
2023-05-16T16:46:55.678Z,99675.23960909322
2023-05-16T16:49:51.196Z,99668.26267952005
2023-05-16T16:52:47.752Z,99677.00118736376
2023-05-16T16:55:45.310Z,99683.99220387074
2023-05-16T16:58:41.831Z,99682.65288877972
2023-05-16T17:01:39.670Z,99687.01666536475
2023-05-16T17:04:35.964Z,99685.59997117291
2023-05-16T17:07:32.549Z,99676.61431404576
2023-05-16T17:10:28.067Z,99683.34786956914
2023-05-16T17:13:23.667Z,99692.82058909467
2023-05-16T17:16:19.268Z,99692.04320934518
2023-05-16T17:19:14.805Z,99698.35385679672
2023-05-16T17:22:13.336Z,99695.69257244327
2023-05-16T17:25:10.013Z,99695.81981259405
2023-05-16T17:28:05.467Z,99703.65084997317
2023-05-16T17:31:02.041Z,99701.0348591579
2023-05-16T17:33:57.541Z,99700.40491712405
2023-05-16T17:36:54.116Z,99703.63010581804
2023-05-16T17:39:49.662Z,99708.77315340638
2023-05-16T17:42:45.255Z,99721.5887262848
2023-05-16T17:45:42.799Z,99722.51121372118
2023-05-16T17:48:39.392Z,99724.6423669505
2023-05-16T17:51:40.867Z,99723.8207326502
2023-05-16T17:54:36.442Z,99728.82435465971
2023-05-16T17:57:33.991Z,99737.39093176942
2023-05-16T18:00:29.561Z,99732.19362347928
2023-05-16T18:03:25.170Z,99737.76473185026
2023-05-16T18:06:22.731Z,99741.21423752382
2023-05-16T18:09:18.255Z,99753.75323646537
2023-05-16T18:12:14.823Z,99751.2090023021
2023-05-16T18:15:12.352Z,99751.88495098359
2023-05-16T18:18:08.969Z,99752.52678366349
2023-05-16T18:21:05.502Z,99757.16890239736
2023-05-16T18:24:01.047Z,99756.10607359985
2023-05-16T18:26:56.660Z,99760.33572080224
2023-05-16T18:29:53.196Z,99763.27972332198
2023-05-16T18:32:49.826Z,99768.14989868205
2023-05-16T18:35:45.369Z,99760.45832852142
2023-05-16T18:38:40.888Z,99769.47348003168
2023-05-16T18:41:36.424Z,99766.50092150157
2023-05-16T18:44:32.964Z,99769.66564485074
2023-05-16T18:47:31.675Z,99764.5021260664
2023-05-16T18:50:28.098Z,99766.49548650149
2023-05-16T18:53:28.637Z,99774.6266245704
2023-05-16T18:56:24.220Z,99777.73926701095
2023-05-16T18:59:20.777Z,99776.38809177201
2023-05-16T19:02:22.204Z,99779.8626259958
2023-05-16T19:05:18.970Z,99781.369138021
2023-05-16T19:08:15.431Z,99793.00018624778
2023-05-16T19:11:13.991Z,99788.73852797637
2023-05-16T19:14:09.546Z,99792.75925889761
2023-05-16T19:17:07.112Z,99792.24883472954
2023-05-16T19:20:02.750Z,99800.75364760173
2023-05-16T19:22:59.311Z,99804.73546307845
2023-05-16T19:25:57.771Z,99810.40395612692
2023-05-16T19:28:54.328Z,99815.37296778377
2023-05-16T19:31:49.898Z,99815.8309857008
2023-05-16T19:34:45.502Z,99808.33033878337
2023-05-16T19:37:51.234Z,99816.09779183775
2023-05-16T19:40:47.617Z,99811.82298123935
2023-05-16T19:43:43.109Z,99815.81194620696
2023-05-16T19:46:39.706Z,99806.72675730436
2023-05-16T19:49:36.246Z,99808.23446323856
2023-05-16T19:52:33.028Z,99812.52795451265
2023-05-16T19:55:30.660Z,99813.40595577919
2023-05-16T19:58:25.913Z,99809.49361813298
2023-05-16T20:01:22.459Z,99808.57699657073
2023-05-16T20:04:18.116Z,99809.03532099946
2023-05-16T20:07:13.573Z,99803.19249321998
2023-05-16T20:10:14.046Z,99812.41158820332
2023-05-16T20:13:10.050Z,99814.60667356805
2023-05-16T20:16:06.399Z,99806.34328802513
2023-05-16T20:19:02.964Z,99812.811633496
2023-05-16T20:21:59.391Z,99816.26526008325
2023-05-16T20:24:54.910Z,99815.01129725172
2023-05-16T20:27:54.497Z,99812.07733729162
2023-05-16T20:30:50.038Z,99809.40321693962
2023-05-16T20:33:46.683Z,99810.58042698257
2023-05-16T20:36:42.148Z,99805.89079775174
2023-05-16T20:39:40.729Z,99806.72897862825
2023-05-16T20:42:37.242Z,99795.51317274994
2023-05-16T20:45:32.815Z,99796.77066703128
2023-05-16T20:48:28.504Z,99799.10423541283
2023-05-16T20:51:23.989Z,99803.07598125367
2023-05-16T20:54:19.511Z,99799.56349116634
2023-05-16T20:57:16.123Z,99797.30752026085
2023-05-16T21:00:12.631Z,99806.36553375781
2023-05-16T21:03:08.359Z,99811.51216491236
2023-05-16T21:06:04.880Z,99808.25261517684
2023-05-16T21:09:00.363Z,99813.4601694886
2023-05-16T21:11:57.878Z,99817.89328843974
2023-05-16T21:14:53.463Z,99819.69130419573
2023-05-16T21:17:51.196Z,99817.410939173
2023-05-16T21:20:47.571Z,99826.04670705272
2023-05-16T21:23:43.141Z,99822.66046751961
2023-05-16T21:26:38.692Z,99826.48596754471
2023-05-16T21:29:34.299Z,99831.79976105543
2023-05-16T21:32:31.984Z,99831.14658203674
2023-05-16T21:35:29.634Z,99829.17309397465
2023-05-16T21:38:25.891Z,99837.56519032276
2023-05-16T21:41:22.496Z,99836.22493016251
2023-05-16T21:44:18.050Z,99835.36832098855
2023-05-16T21:47:13.620Z,99834.62196659166
2023-05-16T21:50:10.184Z,99841.4088547833
2023-05-16T21:53:05.735Z,99841.89262193494
2023-05-16T21:56:01.283Z,99832.33699104833
2023-05-16T21:58:57.833Z,99827.82096222464
2023-05-16T22:01:56.378Z,99832.14792562494
2023-05-16T22:04:53.028Z,99832.73210992708
2023-05-16T22:07:55.525Z,99828.03175619706
2023-05-16T22:10:52.087Z,99828.42699141752
2023-05-16T22:13:52.711Z,99822.73767246137
2023-05-16T22:16:48.234Z,99823.19907449627
2023-05-16T22:19:44.767Z,99827.50409355016
2023-05-16T22:22:41.300Z,99832.8645557333
2023-05-16T22:25:38.047Z,99833.94031917621
2023-05-16T22:28:33.421Z,99836.46105826081
2023-05-16T22:31:28.956Z,99830.75026391314
2023-05-16T22:34:24.531Z,99837.69307721773
2023-05-16T22:37:21.082Z,99842.9218596256
2023-05-16T22:40:16.640Z,99841.95686878535
2023-05-16T22:43:12.252Z,99838.2610546371
2023-05-16T22:46:07.777Z,99845.49318396646
2023-05-16T22:49:04.422Z,99852.83242810363
2023-05-16T22:51:59.899Z,99840.15620647662
2023-05-16T22:54:55.461Z,99841.01318803862
2023-05-16T22:57:52.018Z,99836.72818625638
2023-05-16T23:00:48.558Z,99839.32087273506
2023-05-16T23:03:44.224Z,99842.6399704501
2023-05-16T23:06:39.680Z,99836.0058931295
2023-05-16T23:09:36.299Z,99836.20277135503
2023-05-16T23:12:32.802Z,99842.88704421272
2023-05-16T23:15:29.548Z,99834.93244525498
2023-05-16T23:18:25.031Z,99834.09867141065
2023-05-16T23:21:20.503Z,99828.71287411952
2023-05-16T23:24:17.138Z,99826.21200694279
2023-05-16T23:27:12.586Z,99823.85673995824
2023-05-16T23:30:09.178Z,99816.34152973561
2023-05-16T23:33:04.837Z,99815.62173886428
2023-05-16T23:36:00.306Z,99816.38706023963
2023-05-16T23:38:56.849Z,99827.41729586721
2023-05-16T23:41:53.414Z,99828.64481982596
2023-05-16T23:44:48.983Z,99826.93257245478
2023-05-16T23:47:45.658Z,99824.38674776499
2023-05-16T23:50:42.106Z,99829.7945635279
2023-05-16T23:53:37.687Z,99823.28070624241
2023-05-16T23:56:33.213Z,99823.14324027943
2023-05-16T23:59:28.792Z,99824.02210177264
